Nearby METAR Reports

 

EGKB - Biggin Hill, United Kingdom
Distance from station: S 5mi, 8km
Updated: 23/10/2014 17:20
Light drizzle, Mostly cloudy
Light drizzle, Mostly cloudy
 Wind from SSW
Wind: SSW 13 mph , 20 km/h
Temperature: 13°C
Dew Point: 12°C
Humidity: 94%
Barometer: 1018 hPa
Summary: Light Drizzle
Clouds: Mostly cloudy
Visibility: 6 miles , 10 km
Cloud details: Mostly cloudy 152 m
2014/10/23 16:20 EGKB 231620Z 21011KT 9999 -DZ BKN005 13/12 Q1018
EGLC - London City Airp, United Kingdom
Distance from station: NNE 8mi, 13km
Updated: 23/10/2014 17:20
Mostly cloudy
Mostly cloudy
 Wind from SW
Wind: SW 12 mph , 19 km/h
Temperature: 16°C
Dew Point: 13°C
Humidity: 83%
Barometer: 1017 hPa
Clouds: Mostly cloudy
Visibility: 6 miles , 10 km
Cloud details: Partly cloudy 305 m
Mostly cloudy 1372 m
2014/10/23 16:20 EGLC 231620Z 22010KT 9999 SCT010 BKN045 16/13 Q1017
 
EGKK - London/Gatwick A, United Kingdom
Distance from station: SSW 19mi, 31km
Updated: 23/10/2014 16:50
Light drizzle, Mostly cloudy
Light drizzle, Mostly cloudy
 Wind from SSW
Wind: SSW 8 mph , 13 km/h
Temperature: 14°C
Dew Point: 13°C
Humidity: 94%
Barometer: 1018 hPa
Summary: Light Drizzle
Clouds: Mostly cloudy
Visibility: 5 miles , 8 km
Cloud details: Partly cloudy 183 m
Mostly cloudy 274 m
2014/10/23 15:50 EGKK 231550Z 21007KT 8000 -DZ SCT006 BKN009 14/13 Q1018
EGLL - London/Heathrow, United Kingdom
Distance from station: WNW 21mi, 33km
Updated: 23/10/2014 17:20
Mostly cloudy
Mostly cloudy
 Wind from SW
Wind: SW 13 mph , 20 km/h
Temperature: 16°C
Dew Point: 13°C
Humidity: 83%
Barometer: 1018 hPa
Clouds: Mostly cloudy
Visibility: 6 miles , 10 km
Cloud details: Mostly cloudy 640 m
2014/10/23 16:20 EGLL 231620Z 22011KT 9999 BKN021 16/13 Q1018